Main page
METAR-TAF:

METAR-TAF

Airports :

Riyadh, Saudi Arabia

King Khalid International Airport

latitude: 24-56N, longitude: 046-43E, elevation: 614 m

Current weather observation

The report was made 29 minutes ago, at 16:00 UTC
Wind 3 kt from the Northeast
Temperature 15°C
Humidity 48%
Pressure 1026 hPa
Visibility 10 km or more
no clouds below 1500 m and no cumulonimbus

METAR: OERK 181600Z 04003KT CAVOK 15/04 Q1026 NOSIG

Time: 19:29 (16:29 UTC)

Forecast

The report was made 5 hours and 29 minutes ago, at 11:00 UTC
Forecast valid from 18 at 12 UTC to 19 at 18 UTC
Wind 10 kt from the East/Northeast
Visibility: 7000 m

TAF: OERK 181100Z 1812/1918 06010KT 7000 NSC

Weather observations and forecasts of more than 4000 airports (METAR and TAF reports).

The available stations are represented by yellow and red dots on the map.

Hover mouse over dot to see the name of the station.

Then click to see weather observations and forecasts.

To change the map : click on the green buttons with a black cross to zoom in, on the green button with a dash to zoom out, or on the green arrows for adjacent maps.


METAR-TAF: